Time;durP1;ratioP1;P1;durP2;ratioP2;P2;SDS_P1;SDS_P2;PMS_P1;PMS_P2;Temp;Humidity;BMP_temperature;BMP_pressure;BME280_temperature;BME280_humidity;BME280_pressure;Samples;Min_cycle;Max_cycle;Signal;HPM_P1;HPM_P2
2023/06/13 00:03:23;;;;;;;6.30;4.30;;;;;;;18.55;100.00;101429.44;5056263;28;20032;-73
2023/06/13 00:05:51;;;;;;;7.65;4.25;;;;;;;18.29;100.00;101388.31;5055304;28;20111;-73
2023/06/13 00:08:21;;;;;;;6.03;4.13;;;;;;;18.55;100.00;101434.59;5054997;28;20390;-73
2023/06/13 00:10:47;;;;;;;9.60;4.70;;;;;;;18.33;100.00;101388.16;5038266;28;20427;-73
2023/06/13 00:16:36;;;;;;;7.57;5.80;;;;;;;18.37;100.00;101394.03;5056321;28;20047;-73
2023/06/13 00:19:03;;;;;;;9.05;5.30;;;;;;;18.07;100.00;101370.25;5054249;28;20029;-74
2023/06/13 00:21:28;;;;;;;9.60;5.68;;;;;;;18.01;100.00;101379.03;5054819;28;20029;-73
2023/06/13 00:23:53;;;;;;;10.02;5.40;;;;;;;18.18;100.00;101437.66;5055780;28;20029;-73
2023/06/13 00:26:19;;;;;;;6.65;5.65;;;;;;;17.41;100.00;101352.00;5055487;28;20074;-74
2023/06/13 00:28:44;;;;;;;9.40;5.63;;;;;;;17.86;100.00;101407.06;5053987;28;20190;-73
2023/06/13 00:31:10;;;;;;;8.05;5.63;;;;;;;17.16;100.00;101310.84;5055607;28;20111;-74
2023/06/13 00:33:37;;;;;;;9.80;6.00;;;;;;;17.71;100.00;101413.56;5054510;28;20032;-73
2023/06/13 00:39:24;;;;;;;9.30;6.43;;;;;;;17.48;100.00;101336.31;5056032;28;20461;-74
2023/06/13 00:41:49;;;;;;;8.65;6.63;;;;;;;17.44;100.00;101346.75;5055163;28;20033;-74
2023/06/13 00:44:15;;;;;;;8.75;6.07;;;;;;;17.76;100.00;101367.09;5053628;28;20041;-73
2023/06/13 00:46:42;;;;;;;8.95;6.60;;;;;;;18.06;100.00;101417.50;5055696;28;20498;-74
2023/06/13 00:52:29;;;;;;;7.80;6.20;;;;;;;17.69;100.00;101334.78;5055629;28;20036;-76
2023/06/13 00:54:55;;;;;;;9.38;6.40;;;;;;;18.12;100.00;101371.75;5055455;28;20025;-74
2023/06/13 00:57:20;;;;;;;10.85;6.90;;;;;;;18.17;100.00;101417.94;5055382;28;20523;-76
2023/06/13 00:59:46;;;;;;;9.05;6.07;;;;;;;17.67;100.00;101337.38;5054019;28;20033;-76
2023/06/13 01:02:15;;;;;;;9.73;7.05;;;;;;;17.17;100.00;101325.41;5054233;28;20490;-76
2023/06/13 01:04:41;;;;;;;9.50;6.82;;;;;;;16.85;100.00;101312.75;5054999;28;20082;-76
2023/06/13 01:07:10;;;;;;;8.50;7.00;;;;;;;17.51;100.00;101374.81;5053880;28;20029;-76
2023/06/13 01:09:36;;;;;;;9.73;6.95;;;;;;;17.33;100.00;101378.81;5055207;28;20025;-75
2023/06/13 01:15:25;;;;;;;7.35;6.53;;;;;;;17.62;100.00;101397.59;5055446;28;20098;-75
2023/06/13 01:17:57;;;;;;;8.85;6.72;;;;;;;17.45;100.00;101392.16;5055153;28;20055;-76
2023/06/13 01:20:28;;;;;;;10.60;6.78;;;;;;;16.97;100.00;101335.50;5055135;28;20025;-75
2023/06/13 01:23:06;;;;;;;7.07;6.38;;;;;;;17.70;100.00;101405.91;5053812;28;20059;-75
2023/06/13 01:26:07;;;;;;;8.65;6.97;;;;;;;17.68;100.00;101402.53;5055078;28;20021;-75
2023/06/13 01:28:35;;;;;;;9.05;6.30;;;;;;;17.61;100.00;101393.38;5029857;28;20060;-75
2023/06/13 01:31:07;;;;;;;7.15;6.45;;;;;;;17.21;100.00;101350.94;5054970;28;20091;-74
2023/06/13 01:36:54;;;;;;;12.50;7.93;;;;;;;17.34;100.00;101402.78;5054862;28;20459;-74
2023/06/13 01:39:20;;;;;;;11.25;7.43;;;;;;;17.48;100.00;101404.91;5054389;28;20112;-74
2023/06/13 01:41:45;;;;;;;8.23;6.97;;;;;;;16.84;100.00;101305.91;5054086;28;20445;-74
2023/06/13 01:47:50;;;;;;;10.13;6.80;;;;;;;17.45;100.00;101413.56;5054734;28;20082;-74
2023/06/13 01:50:22;;;;;;;10.60;6.82;;;;;;;16.90;100.00;101351.97;5054504;28;20044;-75
2023/06/13 01:53:10;;;;;;;10.70;7.00;;;;;;;17.38;100.00;101424.09;5053776;28;20493;-74
2023/06/13 01:55:42;;;;;;;10.40;6.55;;;;;;;17.22;100.00;101374.91;5054289;28;20033;-74
2023/06/13 01:58:24;;;;;;;13.23;7.32;;;;;;;17.27;100.00;101419.31;5052860;28;20218;-74
2023/06/13 02:00:55;;;;;;;14.35;7.28;;;;;;;16.57;100.00;101317.94;5053998;28;20037;-74
2023/06/13 02:03:21;;;;;;;13.80;7.63;;;;;;;17.17;100.00;101421.31;5054465;28;20029;-75
2023/06/13 02:09:08;;;;;;;14.13;7.32;;;;;;;16.84;100.00;101342.75;5054249;28;20449;-74
2023/06/13 02:11:34;;;;;;;13.82;7.32;;;;;;;16.76;100.00;101346.44;5053435;28;20029;-75
2023/06/13 02:13:59;;;;;;;9.15;6.80;;;;;;;16.95;100.00;101355.25;5052503;28;20056;-74
2023/06/13 02:16:29;;;;;;;14.30;6.90;;;;;;;17.28;100.00;101431.28;5052028;28;20033;-75
2023/06/13 02:18:55;;;;;;;15.38;7.07;;;;;;;16.48;100.00;101343.84;5054187;28;20027;-75
2023/06/13 02:21:22;;;;;;;20.33;7.40;;;;;;;16.56;100.00;101357.31;5054284;28;20075;-76
2023/06/13 02:23:47;;;;;;;14.45;7.13;;;;;;;16.80;100.00;101414.81;5052077;28;20032;-74
2023/06/13 02:26:13;;;;;;;18.05;7.00;;;;;;;16.36;100.00;101359.63;5053307;28;20033;-74
2023/06/13 02:32:00;;;;;;;18.83;7.38;;;;;;;16.66;100.00;101416.97;5053670;28;20494;-74
2023/06/13 02:37:47;;;;;;;11.20;7.47;;;;;;;16.27;100.00;101388.97;5053523;28;20051;-74
2023/06/13 02:47:09;;;;;;;20.63;7.50;;;;;;;16.77;100.00;101387.50;5053506;28;20101;-74
2023/06/13 02:52:56;;;;;;;14.02;7.32;;;;;;;16.34;100.00;101341.69;5059013;28;20366;-74
2023/06/13 02:55:22;;;;;;;17.67;7.55;;;;;;;16.15;100.00;101316.59;5051642;28;20120;-74
2023/06/13 02:57:48;;;;;;;15.00;7.30;;;;;;;16.19;100.00;101360.09;5051627;28;20108;-74
2023/06/13 03:00:17;;;;;;;15.95;7.10;;;;;;;16.67;100.00;101409.22;5051062;28;20471;-74
2023/06/13 03:02:46;;;;;;;20.13;7.80;;;;;;;16.56;100.00;101416.38;5053123;28;20024;-74
2023/06/13 03:05:16;;;;;;;12.60;8.00;;;;;;;15.80;100.00;101327.03;5053023;28;20107;-73
2023/06/13 03:10:48;;;;;;;19.10;7.57;;;;;;;15.99;100.00;101348.72;5053115;28;19911;-74
2023/06/13 03:13:13;;;;;;;16.15;7.88;;;;;;;16.09;100.00;101366.38;5051360;28;20368;-74
2023/06/13 03:15:39;;;;;;;18.98;8.52;;;;;;;16.42;100.00;101439.00;5052500;28;20036;-73
2023/06/13 03:18:04;;;;;;;20.00;7.70;;;;;;;16.53;100.00;101454.16;5051476;28;20464;-74
2023/06/13 03:23:51;;;;;;;17.15;8.35;;;;;;;16.17;100.00;101443.16;5053241;28;20098;-74
2023/06/13 03:26:16;;;;;;;14.13;7.75;;;;;;;16.10;100.00;101403.16;5051798;28;20025;-74
2023/06/13 03:28:42;;;;;;;17.15;8.15;;;;;;;16.32;100.00;101423.03;5052709;28;20021;-74
2023/06/13 03:31:08;;;;;;;17.10;8.32;;;;;;;16.58;100.00;101467.72;5052446;28;20025;-74
2023/06/13 03:33:33;;;;;;;13.10;8.18;;;;;;;16.33;100.00;101437.56;5050797;28;20117;-73
2023/06/13 03:35:59;;;;;;;13.93;8.70;;;;;;;16.38;100.00;101481.91;5051177;28;20029;-76
2023/06/13 03:38:27;;;;;;;14.85;9.15;;;;;;;15.77;100.00;101358.72;5051282;28;20021;-76
2023/06/13 03:40:52;;;;;;;15.20;8.90;;;;;;;16.35;100.00;101415.25;5053059;28;20028;-76
2023/06/13 03:50:38;;;;;;;11.77;8.63;;;;;;;16.95;100.00;101488.88;5052699;28;20063;-74
2023/06/13 03:53:03;;;;;;;14.32;8.77;;;;;;;16.87;100.00;101480.53;5050772;28;20487;-76
2023/06/13 03:55:29;;;;;;;12.55;8.48;;;;;;;17.24;100.00;101514.53;5050588;28;20021;-74
2023/06/13 03:57:55;;;;;;;12.48;8.90;;;;;;;16.66;100.00;101487.13;5050724;28;20025;-74
2023/06/13 04:00:21;;;;;;;14.95;9.70;;;;;;;17.17;100.00;101552.41;5050743;28;20032;-74
2023/06/13 04:06:08;;;;;;;13.33;9.83;;;;;;;17.38;100.00;101557.81;5051972;28;20098;-72
2023/06/13 04:08:35;;;;;;;12.52;9.70;;;;;;;17.37;100.00;101580.13;5051264;28;20037;-76
2023/06/13 04:11:01;;;;;;;12.27;9.77;;;;;;;17.49;100.00;101561.75;5052894;28;20021;-75
2023/06/13 04:13:27;;;;;;;16.05;9.27;;;;;;;17.55;100.00;101576.19;5050274;28;20056;-75
2023/06/13 04:19:18;;;;;;;15.77;9.57;;;;;;;17.45;100.00;101497.59;5052791;28;20036;-73
2023/06/13 04:21:46;;;;;;;17.00;11.00;;;;;;;17.50;100.00;101570.31;5052499;28;20117;-73
2023/06/13 04:24:12;;;;;;;12.45;10.55;;;;;;;17.72;100.00;101567.03;5050698;28;20040;-74
2023/06/13 04:26:38;;;;;;;15.10;10.80;;;;;;;17.77;100.00;101583.16;5050012;28;20403;-71
2023/06/13 04:32:28;;;;;;;12.52;9.75;;;;;;;17.40;100.00;101502.88;5051820;28;20120;-73
2023/06/13 04:38:18;;;;;;;12.15;8.80;;;;;;;17.96;100.00;101529.38;5053011;28;20515;-74
2023/06/13 04:40:44;;;;;;;11.00;8.55;;;;;;;18.09;100.00;101554.66;5053689;28;20032;-75
2023/06/13 04:43:09;;;;;;;11.35;8.88;;;;;;;18.12;100.00;101533.13;5053337;28;20025;-72
2023/06/13 04:45:36;;;;;;;12.02;8.75;;;;;;;18.35;100.00;101528.00;5054720;28;20088;-71
2023/06/13 04:51:25;;;;;;;14.15;7.88;;;;;;;19.14;100.00;101566.38;5055368;28;20090;-73
2023/06/13 04:53:52;;;;;;;12.35;8.40;;;;;;;19.27;100.00;101583.94;5053400;28;20024;-73
2023/06/13 04:56:17;;;;;;;10.82;7.70;;;;;;;19.14;100.00;101514.78;5053856;28;20036;-73
2023/06/13 04:58:43;;;;;;;14.90;8.70;;;;;;;19.25;100.00;101561.66;5055081;28;20033;-72
2023/06/13 05:04:30;;;;;;;15.05;8.60;;;;;;;19.79;100.00;101511.31;5054972;28;20543;-72
2023/06/13 05:10:17;;;;;;;10.98;8.02;;;;;;;20.21;100.00;101572.44;5054693;28;20039;-72
2023/06/13 05:16:04;;;;;;;10.63;7.50;;;;;;;19.95;100.00;101547.66;5054858;28;20067;-73
2023/06/13 05:18:31;;;;;;;30.20;16.95;;;;;;;19.55;100.00;101478.75;5052861;28;20059;-73
2023/06/13 05:21:00;;;;;;;19.05;12.77;;;;;;;19.59;100.00;101476.91;5054181;28;20021;-71
2023/06/13 05:26:47;;;;;;;17.77;10.32;;;;;;;19.37;100.00;101421.94;5054561;28;20071;-70
2023/06/13 05:29:12;;;;;;;14.60;9.07;;;;;;;19.72;100.00;101429.03;5052356;28;20029;-71
2023/06/13 05:31:37;;;;;;;15.50;9.05;;;;;;;19.47;100.00;101442.09;5052348;28;20144;-71
2023/06/13 05:34:03;;;;;;;13.55;8.15;;;;;;;19.81;100.00;101501.75;5054218;28;20394;-72
2023/06/13 05:39:50;;;;;;;13.98;8.07;;;;;;;20.21;100.00;101480.28;5054527;28;20120;-72
2023/06/13 05:45:37;;;;;;;17.60;10.02;;;;;;;20.10;100.00;101494.53;5054391;28;20099;-72
2023/06/13 05:48:03;;;;;;;18.65;10.23;;;;;;;19.99;100.00;101505.31;5051872;28;20052;-71
2023/06/13 05:50:28;;;;;;;17.65;11.35;;;;;;;20.06;100.00;101517.06;5052565;28;20029;-71
2023/06/13 05:52:53;;;;;;;17.40;10.07;;;;;;;19.73;100.00;101441.88;5052059;28;20120;-71
2023/06/13 05:58:41;;;;;;;13.15;10.60;;;;;;;20.19;100.00;101507.06;5054123;28;20407;-71
2023/06/13 06:04:28;;;;;;;11.57;9.27;;;;;;;20.68;100.00;101476.41;5053617;28;20039;-72
2023/06/13 06:06:53;;;;;;;20.60;10.10;;;;;;;20.86;100.00;101525.63;5053068;28;20414;-71
2023/06/13 06:09:19;;;;;;;19.75;10.57;;;;;;;21.00;100.00;101552.53;5051841;28;20110;-72
2023/06/13 06:11:44;;;;;;;15.60;9.40;;;;;;;20.71;100.00;101509.91;5053128;28;20426;-72
2023/06/13 06:14:09;;;;;;;11.70;9.32;;;;;;;21.42;100.00;101487.59;5053208;28;20024;-72
2023/06/13 06:16:35;;;;;;;11.30;8.50;;;;;;;21.34;100.00;101487.13;5052746;28;20029;-72
2023/06/13 06:19:00;;;;;;;10.27;8.30;;;;;;;21.92;100.00;101550.72;5034997;28;20033;-71
2023/06/13 06:21:26;;;;;;;11.00;9.38;;;;;;;21.36;100.00;101503.41;5051374;28;20419;-72
2023/06/13 06:23:51;;;;;;;12.10;8.68;;;;;;;21.50;100.00;101538.09;5051278;28;20399;-72
2023/06/13 06:29:39;;;;;;;15.75;9.63;;;;;;;21.86;100.00;101507.00;5053247;28;20048;-71
2023/06/13 06:32:06;;;;;;;15.98;9.75;;;;;;;21.10;100.00;101507.25;5035079;28;20025;-72
2023/06/13 06:34:31;;;;;;;12.95;9.07;;;;;;;22.02;100.00;101500.13;5050791;28;20115;-72
2023/06/13 06:40:18;;;;;;;17.48;8.90;;;;;;;22.45;100.00;101506.50;5053081;28;20127;-71
2023/06/13 06:42:44;;;;;;;12.48;8.65;;;;;;;22.31;100.00;101465.75;5050775;28;20546;-71
2023/06/13 06:45:10;;;;;;;11.52;8.27;;;;;;;22.32;100.00;101464.03;5053118;28;20108;-71
2023/06/13 06:47:36;;;;;;;9.20;7.88;;;;;;;22.75;100.00;101514.44;5050351;28;20045;-70
2023/06/13 06:50:01;;;;;;;10.73;7.55;;;;;;;22.40;100.00;101469.63;5052568;28;20112;-71
2023/06/13 06:52:28;;;;;;;9.82;7.47;;;;;;;22.21;100.00;101494.81;5050910;28;20032;-72
2023/06/13 06:54:53;;;;;;;9.82;7.95;;;;;;;22.24;100.00;101508.47;5052839;28;20108;-73
2023/06/13 06:57:19;;;;;;;9.65;7.55;;;;;;;22.46;100.00;101494.41;5051255;28;20470;-72
2023/06/13 07:03:07;;;;;;;9.85;8.13;;;;;;;21.82;100.00;101476.13;5052663;28;20390;-72
2023/06/13 07:08:54;;;;;;;11.48;7.68;;;;;;;23.04;100.00;101457.44;5052641;28;20040;-73
2023/06/13 07:11:19;;;;;;;13.30;8.15;;;;;;;22.08;100.00;101445.41;5050657;28;20028;-71
2023/06/13 07:13:45;;;;;;;8.27;7.40;;;;;;;23.25;100.00;101515.94;5052934;28;20463;-71
2023/06/13 07:16:10;;;;;;;8.30;7.38;;;;;;;22.42;100.00;101441.88;5055244;28;20017;-72
2023/06/13 07:21:59;;;;;;;11.82;8.13;;;;;;;22.65;100.00;101457.06;5052434;28;20489;-72
2023/06/13 07:24:25;;;;;;;11.52;7.47;;;;;;;22.64;100.00;101488.28;5052082;28;20056;-71
2023/06/13 07:26:50;;;;;;;10.13;7.38;;;;;;;22.16;100.00;101391.44;5051896;28;20162;-72
2023/06/13 07:29:15;;;;;;;10.18;7.25;;;;;;;22.79;100.00;101457.16;5050632;28;20047;-72
2023/06/13 07:31:41;;;;;;;8.95;6.75;;;;;;;22.37;100.00;101444.72;5050316;28;20036;-71
2023/06/13 07:34:06;;;;;;;8.20;6.22;;;;;;;23.48;100.00;101516.44;5051928;28;20107;-71
2023/06/13 07:36:32;;;;;;;10.80;6.43;;;;;;;23.50;100.00;101475.66;5051440;28;20107;-71
2023/06/13 07:38:57;;;;;;;9.98;6.45;;;;;;;23.49;100.00;101461.84;5051816;28;20039;-71
2023/06/13 07:41:23;;;;;;;7.22;6.32;;;;;;;22.51;100.00;101399.88;5051467;28;20021;-71
2023/06/13 07:43:49;;;;;;;9.85;7.30;;;;;;;23.32;100.00;101456.75;5050333;28;20459;-72
2023/06/13 07:46:16;;;;;;;9.13;6.93;;;;;;;22.93;100.00;101430.44;5052055;28;20028;-71
2023/06/13 07:48:41;;;;;;;10.18;6.43;;;;;;;24.23;100.00;101482.56;5051088;28;20471;-71
2023/06/13 07:51:07;;;;;;;10.07;6.35;;;;;;;23.09;100.00;101351.63;5051909;28;20048;-72
2023/06/13 07:53:32;;;;;;;9.20;7.45;;;;;;;22.35;100.00;101409.41;5050877;28;20029;-71
2023/06/13 07:55:58;;;;;;;7.93;6.57;;;;;;;22.27;100.00;101359.72;5049764;28;20025;-71
2023/06/13 07:58:25;;;;;;;8.05;6.35;;;;;;;22.64;100.00;101428.63;5050163;28;20067;-72
2023/06/13 08:00:50;;;;;;;8.55;6.80;;;;;;;23.26;100.00;101408.59;5052107;28;20048;-71
2023/06/13 08:03:16;;;;;;;8.05;6.38;;;;;;;23.31;100.00;101346.06;5051684;28;20082;-72
2023/06/13 08:05:41;;;;;;;11.27;6.70;;;;;;;24.23;100.00;101378.56;5051688;28;20017;-71
2023/06/13 08:08:07;;;;;;;9.77;6.35;;;;;;;24.31;100.00;101321.72;5051320;28;20029;-71
2023/06/13 08:10:32;;;;;;;13.07;6.70;;;;;;;23.35;100.00;101315.56;5052131;28;20036;-71
2023/06/13 08:12:59;;;;;;;12.52;7.72;;;;;;;23.49;100.00;101319.00;5051563;28;20029;-72
2023/06/13 08:15:25;;;;;;;18.90;9.82;;;;;;;23.38;100.00;101282.44;5056262;28;20032;-71
2023/06/13 08:17:51;;;;;;;10.32;8.30;;;;;;;22.54;100.00;101314.13;5036976;28;20029;-72
2023/06/13 08:23:38;;;;;;;;;;;;;;;23.28;100.00;101321.09;5056217;28;20115;-71
2023/06/13 08:26:03;;;;;;;9.87;6.33;;;;;;;23.24;100.00;101318.75;5053441;28;20098;-72
2023/06/13 08:28:29;;;;;;;10.75;6.18;;;;;;;22.97;100.00;101268.47;5053745;28;20823;-72
2023/06/13 08:30:54;;;;;;;9.70;6.05;;;;;;;23.73;100.00;101277.72;5055499;28;20036;-71
2023/06/13 08:36:42;;;;;;;6.38;4.80;;;;;;;23.49;100.00;101194.38;5055552;28;20040;-71
2023/06/13 08:39:07;;;;;;;8.32;4.85;;;;;;;23.97;100.00;101232.84;5053948;28;20021;-72
2023/06/13 08:41:33;;;;;;;6.13;4.70;;;;;;;23.82;100.00;101205.25;5053958;28;20032;-73
2023/06/13 08:43:59;;;;;;;6.22;5.10;;;;;;;23.83;100.00;101144.53;5053458;28;20029;-73
2023/06/13 08:46:25;;;;;;;11.95;5.25;;;;;;;24.13;100.00;101144.34;5054912;28;20127;-73
2023/06/13 08:48:50;;;;;;;5.60;4.97;;;;;;;22.98;100.00;101047.81;5053516;28;20115;-73
2023/06/13 08:51:18;;;;;;;9.20;5.50;;;;;;;23.60;100.00;101124.41;5054759;28;20028;-71
2023/06/13 08:53:56;;;;;;;8.48;5.63;;;;;;;23.32;100.00;101113.22;5053571;28;20055;-71
2023/06/13 08:59:48;;;;;;;8.20;5.32;;;;;;;23.51;100.00;101039.25;5055120;28;20032;-71
2023/06/13 09:02:24;;;;;;;9.48;5.32;;;;;;;23.68;100.00;101015.66;5053086;28;20029;-70
2023/06/13 09:04:51;;;;;;;7.78;5.90;;;;;;;24.05;100.00;101053.88;5054627;28;20028;-70
2023/06/13 09:07:17;;;;;;;6.80;5.30;;;;;;;23.98;100.00;101013.63;5054646;28;20025;-70
2023/06/13 09:09:43;;;;;;;7.82;5.82;;;;;;;24.03;100.00;101047.13;5054593;28;20383;-71
2023/06/13 09:12:12;;;;;;;7.57;5.75;;;;;;;23.51;100.00;101000.31;5053087;28;20025;-70
2023/06/13 09:14:39;;;;;;;8.32;5.25;;;;;;;23.99;100.00;100989.28;5054664;28;20040;-71
2023/06/13 09:20:28;;;;;;;7.65;5.88;;;;;;;24.22;100.00;100997.34;5054737;28;20082;-69
2023/06/13 09:26:16;;;;;;;9.07;5.95;;;;;;;24.79;100.00;100954.28;5054840;28;20081;-73
2023/06/13 09:28:43;;;;;;;8.65;5.65;;;;;;;25.81;100.00;100932.00;5052802;28;20036;-72
2023/06/13 09:31:10;;;;;;;8.88;5.95;;;;;;;24.73;100.00;100829.84;5053334;28;20048;-73
2023/06/13 09:33:36;;;;;;;8.40;5.65;;;;;;;25.88;100.00;100793.25;5053217;28;20048;-74
2023/06/13 09:39:24;;;;;;;8.82;6.53;;;;;;;24.80;100.00;100664.50;5054585;28;20395;-73
2023/06/13 09:45:12;;;;;;;8.13;5.65;;;;;;;26.77;100.00;100637.25;5054851;28;20035;-73
2023/06/13 09:51:13;;;;;;;7.22;5.40;;;;;;;26.24;100.00;100516.53;5034252;28;20091;-71
2023/06/13 09:53:39;;;;;;;8.63;5.10;;;;;;;25.97;100.00;100443.22;5032596;28;20072;-72
2023/06/13 09:56:09;;;;;;;7.07;5.20;;;;;;;26.20;100.00;100485.63;5034354;28;20024;-73
2023/06/13 09:58:38;;;;;;;7.60;5.10;;;;;;;26.78;100.00;100458.81;5034188;28;20033;-73
2023/06/13 10:01:04;;;;;;;7.85;4.60;;;;;;;26.92;100.00;100381.91;5033981;28;20030;-74
2023/06/13 10:03:30;;;;;;;7.55;5.65;;;;;;;25.64;100.00;100363.50;5049319;28;20121;-73
2023/06/13 10:05:59;;;;;;;6.53;5.10;;;;;;;26.74;100.00;100360.84;5033589;28;20057;-73
2023/06/13 10:11:51;;;;;;;6.82;4.80;;;;;;;26.39;100.00;100644.81;5034301;28;20143;-73
2023/06/13 10:17:42;;;;;;;9.48;5.25;;;;;;;26.96;100.00;101109.16;5033881;28;20083;-73
2023/06/13 10:20:15;;;;;;;6.45;5.10;;;;;;;25.37;100.00;101235.66;5033234;28;20080;-75
2023/06/13 10:22:40;;;;;;;7.47;4.80;;;;;;;27.26;100.00;101465.50;5033630;28;20391;-72
2023/06/13 10:28:27;;;;;;;;;;;;;;;26.13;100.00;101643.16;5034157;28;20036;-73
2023/06/13 10:31:11;;;;;;;6.97;4.70;;;;;;;28.05;100.00;101703.69;5032881;28;19909;-73
2023/06/13 10:33:48;;;;;;;5.78;4.95;;;;;;;27.47;100.00;101621.72;5033418;28;20264;-73
2023/06/13 10:39:48;;;;;;;8.27;5.07;;;;;;;27.48;100.00;101305.34;5033402;28;20071;-72
2023/06/13 10:42:19;;;;;;;8.25;5.53;;;;;;;27.32;100.00;101156.72;5031721;28;20029;-71
2023/06/13 10:45:07;;;;;;;12.13;4.93;;;;;;;26.41;100.00;101065.53;5048184;28;20442;-72
2023/06/13 10:47:32;;;;;;;9.65;4.88;;;;;;;27.83;100.00;100991.41;5043932;28;20055;-73
2023/06/13 10:50:01;;;;;;;6.57;5.05;;;;;;;27.20;100.00;100974.81;5051643;28;20025;-72
2023/06/13 10:55:49;;;;;;;;;;;;;;;27.39;100.00;101356.50;5053485;28;20075;-73
2023/06/13 10:58:14;;;;;;;7.35;5.32;;;;;;;26.92;100.00;101385.31;5052668;28;19940;-73
2023/06/13 11:00:40;;;;;;;5.57;4.78;;;;;;;26.01;100.00;101330.22;5051275;28;20467;-73
2023/06/13 11:03:08;;;;;;;7.50;5.30;;;;;;;26.07;100.00;101392.41;5052767;28;20109;-73
2023/06/13 11:05:36;;;;;;;7.30;5.43;;;;;;;25.72;100.00;101345.28;5052583;28;20056;-73
2023/06/13 11:08:04;;;;;;;5.63;5.07;;;;;;;25.59;100.00;101324.41;5050950;28;20021;-74
2023/06/13 11:10:30;;;;;;;6.35;5.05;;;;;;;26.55;100.00;101353.22;5052355;28;20106;-75
2023/06/13 11:12:56;;;;;;;8.57;5.22;;;;;;;26.21;100.00;101327.88;5052140;28;20506;-73
2023/06/13 11:15:26;;;;;;;8.40;5.03;;;;;;;27.13;100.00;101433.41;5052168;28;20147;-73
2023/06/13 11:18:00;;;;;;;8.67;5.13;;;;;;;27.03;100.00;101442.00;5051573;28;20029;-73
2023/06/13 11:20:27;;;;;;;8.38;5.50;;;;;;;27.69;100.00;101478.03;5051195;28;20025;-73
2023/06/13 11:22:53;;;;;;;6.05;4.90;;;;;;;26.45;100.00;101323.50;5050456;28;20020;-73
2023/06/13 11:25:19;;;;;;;7.20;5.15;;;;;;;26.20;100.00;101373.19;5052204;28;20051;-73
2023/06/13 11:27:46;;;;;;;5.70;4.78;;;;;;;27.67;100.00;101708.25;5050816;28;20467;-73
2023/06/13 11:30:12;;;;;;;6.57;5.22;;;;;;;27.30;100.00;101649.84;5052838;28;20473;-74
2023/06/13 11:35:59;;;;;;;8.98;4.78;;;;;;;27.64;100.00;101736.34;5052691;28;20124;-73
2023/06/13 11:41:47;;;;;;;;;;;;;;;28.56;100.00;101044.47;5052791;28;20107;-73
2023/06/13 11:44:12;;;;;;;6.60;4.30;;;;;;;27.75;100.00;100934.50;5052435;28;19909;-73
2023/06/13 11:46:43;;;;;;;4.97;4.47;;;;;;;27.83;100.00;100830.09;5060894;28;20075;-73
2023/06/13 11:49:12;;;;;;;5.45;4.38;;;;;;;28.27;100.00;100680.56;5063048;28;20021;-73
2023/06/13 11:54:59;;;;;;;7.95;5.10;;;;;;;28.22;100.00;100217.13;5052068;28;20490;-73
2023/06/13 11:57:43;;;;;;;8.38;4.70;;;;;;;27.73;100.00;100083.44;5050833;28;20029;-73
2023/06/13 12:00:11;;;;;;;9.75;4.60;;;;;;;27.81;100.00;99939.75;5050481;28;20027;-73
2023/06/13 12:05:58;;;;;;;6.47;4.80;;;;;;;26.75;100.00;99633.63;5052186;28;20407;-73
2023/06/13 12:08:23;;;;;;;5.75;4.82;;;;;;;26.58;100.00;99640.50;5051660;28;20025;-73
2023/06/13 12:10:49;;;;;;;7.57;4.90;;;;;;;27.07;100.00;99587.63;5051764;28;20460;-73
2023/06/13 12:13:16;;;;;;;8.20;4.82;;;;;;;26.14;100.00;99492.88;5050515;28;20049;-73
2023/06/13 12:15:42;;;;;;;6.68;4.70;;;;;;;27.50;100.00;99400.34;5052219;28;20024;-72
2023/06/13 12:18:07;;;;;;;7.82;4.57;;;;;;;27.65;100.00;99347.28;5051402;28;20494;-72
2023/06/13 12:20:47;;;;;;;5.03;4.30;;;;;;;27.47;100.00;99187.31;5051388;28;20033;-73
2023/06/13 12:26:40;;;;;;;6.03;4.63;;;;;;;26.72;100.00;99101.72;5052111;28;20040;-72
2023/06/13 12:32:29;;;;;;;;;;;;;;;28.06;100.00;99097.00;5054369;28;20143;-74
2023/06/13 12:38:17;;;;;;;6.82;4.72;;;;;;;27.00;100.00;99008.97;5053240;28;20095;-75
2023/06/13 12:40:45;;;;;;;8.93;4.95;;;;;;;26.81;100.00;99091.09;5052657;28;20021;-75
2023/06/13 12:43:12;;;;;;;5.68;5.07;;;;;;;27.67;100.00;99060.50;5053243;28;20032;-75
2023/06/13 12:45:42;;;;;;;8.20;4.68;;;;;;;27.75;100.00;99031.69;5051802;28;20033;-74
2023/06/13 12:51:29;;;;;;;5.60;4.53;;;;;;;28.32;100.00;98945.72;5052141;28;20051;-73
2023/06/13 12:57:16;;;;;;;4.88;4.20;;;;;;;28.43;100.00;98947.06;5052036;28;20044;-74
2023/06/13 12:59:45;;;;;;;5.63;4.50;;;;;;;28.05;100.00;98930.66;5052904;28;20394;-75
2023/06/13 13:02:23;;;;;;;5.75;4.18;;;;;;;27.50;100.00;98917.94;5053736;28;20024;-75
2023/06/13 13:04:58;;;;;;;7.43;4.40;;;;;;;27.31;100.00;98942.72;5056033;28;20032;-76
2023/06/13 13:07:25;;;;;;;6.55;3.90;;;;;;;28.24;100.00;98979.81;5054564;28;20052;-74
2023/06/13 13:09:51;;;;;;;5.38;4.32;;;;;;;28.06;100.00;99034.25;5055358;28;20021;-74
2023/06/13 13:15:39;;;;;;;;;;;;;;;27.02;100.00;99060.00;5055642;28;20079;-74
2023/06/13 13:18:04;;;;;;;5.10;4.30;;;;;;;27.41;100.00;99005.19;5054855;28;20346;-74
2023/06/13 13:20:30;;;;;;;8.77;4.90;;;;;;;26.91;100.00;98983.91;5053230;28;20396;-74
2023/06/13 13:22:56;;;;;;;4.75;4.35;;;;;;;27.33;100.00;99026.94;5054329;28;20390;-74
2023/06/13 13:25:21;;;;;;;8.55;4.75;;;;;;;27.92;100.00;99082.03;5054808;28;20028;-73
2023/06/13 13:27:47;;;;;;;5.50;4.47;;;;;;;27.91;100.00;99094.28;5054492;28;20033;-73
2023/06/13 13:30:13;;;;;;;8.50;4.32;;;;;;;27.61;100.00;99048.13;5053325;28;20398;-73
2023/06/13 13:32:39;;;;;;;5.07;4.50;;;;;;;26.95;100.00;99061.69;5052745;28;20049;-74
2023/06/13 13:35:05;;;;;;;8.48;4.70;;;;;;;26.76;100.00;99072.50;5036105;28;20055;-74
2023/06/13 13:37:30;;;;;;;5.95;4.57;;;;;;;27.23;100.00;99150.81;5054345;28;20585;-74
2023/06/13 13:39:56;;;;;;;6.47;4.68;;;;;;;27.16;100.00;99147.22;5053218;28;20024;-74
2023/06/13 13:45:43;;;;;;;;;;;;;;;28.11;100.00;99183.53;5054948;28;20032;-74
2023/06/13 13:48:10;;;;;;;5.37;4.30;;;;;;;27.87;100.00;99197.56;5053606;28;19913;-74
2023/06/13 13:50:36;;;;;;;6.35;4.78;;;;;;;27.28;100.00;99138.06;5054724;28;20017;-74
2023/06/13 13:53:01;;;;;;;5.05;4.35;;;;;;;26.40;100.00;99124.19;5036110;28;20025;-75
2023/06/13 13:55:27;;;;;;;8.50;4.38;;;;;;;26.80;100.00;99131.19;5054156;28;20017;-75
2023/06/13 13:57:52;;;;;;;7.30;4.85;;;;;;;26.82;100.00;99131.84;5053964;28;20021;-75
2023/06/13 14:00:18;;;;;;;7.18;5.18;;;;;;;26.70;100.00;99167.06;5053260;28;20046;-75
2023/06/13 14:02:43;;;;;;;5.90;4.70;;;;;;;26.17;100.00;99120.63;5052511;28;20032;-74
2023/06/13 14:05:09;;;;;;;6.28;4.43;;;;;;;26.72;100.00;99172.94;5052646;28;20497;-74
2023/06/13 14:07:34;;;;;;;6.60;4.75;;;;;;;26.03;100.00;99123.84;5052385;28;20029;-73
2023/06/13 14:10:00;;;;;;;6.30;4.72;;;;;;;26.59;100.00;99102.19;5053600;28;20074;-75
2023/06/13 14:12:26;;;;;;;7.10;5.00;;;;;;;26.18;100.00;99127.50;5053368;28;20383;-74
2023/06/13 14:18:15;;;;;;;8.25;5.47;;;;;;;26.43;100.00;99167.41;5055009;28;20047;-74
2023/06/13 14:20:40;;;;;;;5.43;4.90;;;;;;;26.22;100.00;99174.91;5053201;28;20040;-76
2023/06/13 14:23:06;;;;;;;6.50;4.75;;;;;;;26.35;100.00;99186.47;5054075;28;20033;-77
2023/06/13 14:25:31;;;;;;;8.95;5.60;;;;;;;26.43;100.00;99191.69;5053441;28;20127;-76
2023/06/13 14:31:18;;;;;;;5.95;4.70;;;;;;;26.09;100.00;99180.56;5054737;28;20552;-76
2023/06/13 14:37:05;;;;;;;;;;;;;;;26.55;100.00;99207.81;5053972;28;20043;-72
2023/06/13 14:39:31;;;;;;;8.07;4.90;;;;;;;26.09;100.00;99130.22;5051337;28;20305;-74
2023/06/13 14:41:56;;;;;;;7.40;5.15;;;;;;;26.07;100.00;99140.03;5052650;28;20037;-74
2023/06/13 14:44:22;;;;;;;9.35;4.82;;;;;;;26.44;100.00;99182.88;5052565;28;20040;-73